This is the latest recevied weather packets stored in our database for station/object G1SCQ. If no packets are shown the sender has not sent any weather packets the latest 10 day(s).
| Time | Temp. | Humidity | Pressure | Rain* | Wind** | Luminosity | Snow |
|---|---|---|---|---|---|---|---|
| 1778234945 | 14.44° C | 74% | 1017.9 hPa | 0 mm | - | 533 W/m² | - |
| 1778234405 | 13.89° C | 73% | 1017.8 hPa | 0 mm | - | 519 W/m² | - |
| 1778234044 | 14.44° C | 73% | 1017.8 hPa | 0 mm | - | 509 W/m² | - |
| 1778233505 | 13.89° C | 73% | 1017.7 hPa | 0 mm | - | 488 W/m² | - |
| 1778232964 | 14.44° C | 74% | 1017.8 hPa | 0 mm | - | 475 W/m² | - |
| 1778232425 | 15° C | 70% | 1017.6 hPa | 0 mm | - | 445 W/m² | - |
| 1778231885 | 14.44° C | 70% | 1017.7 hPa | 0 mm | - | 435 W/m² | - |
| 1778231344 | 16.67° C | 58% | 1017.4 hPa | 0 mm | - | 422 W/m² | - |
| 1778230804 | 15.56° C | 58% | 1017.7 hPa | 0 mm | - | 401 W/m² | - |
| 1778230444 | 15° C | 63% | 1017.6 hPa | 0 mm | - | 372 W/m² | - |
| 1778229904 | 14.44° C | 70% | 1017.7 hPa | 0 mm | - | 372 W/m² | - |
| 1778229364 | 13.89° C | 73% | 1017.8 hPa | 0 mm | - | 353 W/m² | - |
| 1778228824 | 12.78° C | 75% | 1017.8 hPa | 0 mm | - | 334 W/m² | - |
| 1778228284 | 12.78° C | 74% | 1017.7 hPa | 0 mm | - | 173 W/m² | - |
| 1778227744 | 12.22° C | 71% | 1017.7 hPa | 0 mm | - | 216 W/m² | - |
| 1778227204 | 12.22° C | 75% | 1017.8 hPa | 0 mm | - | 178 W/m² | - |
| 1778226848 | 12.22° C | 76% | 1017.9 hPa | 0 mm | - | 180 W/m² | - |
| 1778226304 | 12.22° C | 78% | 1017.8 hPa | 0 mm | - | 167 W/m² | - |
| 1778225764 | 11.67° C | 78% | 1017.7 hPa | 0 mm | - | 158 W/m² | - |
| 1778225224 | 11.67° C | 83% | 1017.6 hPa | 0 mm | - | 146 W/m² | - |
| 1778224684 | 11.11° C | 85% | 1017.6 hPa | 0 mm | - | 129 W/m² | - |
| 1778224144 | 10.56° C | 89% | 1017.6 hPa | 0 mm | - | 117 W/m² | - |
| 1778223604 | 10° C | 93% | 1017.4 hPa | 0 mm | - | 107 W/m² | - |
| 1778223244 | 9.44° C | 93% | 1017.4 hPa | 0 mm | - | 96 W/m² | - |
| 1778222704 | 8.89° C | 97% | 1017.3 hPa | 0 mm | - | 87 W/m² | - |
* Rain latest hour (hover to see other rain measurements)
** Current wind speed in m/s (hover to see current wind gust speed)